createdAt,value
2022-10-26T00:00:09.291Z,8.03
2022-10-26T00:01:17.554Z,8.04
2022-10-26T00:02:20.434Z,8.02
2022-10-26T00:03:24.244Z,8.02
2022-10-26T00:04:28.029Z,8.00
2022-10-26T00:05:33.453Z,7.95
2022-10-26T00:06:37.133Z,7.91
2022-10-26T00:08:45.090Z,7.86
2022-10-26T00:09:49.242Z,7.81
2022-10-26T00:10:53.045Z,7.77
2022-10-26T00:11:55.882Z,7.74
2022-10-26T00:12:59.623Z,7.71
2022-10-26T00:14:02.301Z,7.69
2022-10-26T00:15:06.895Z,7.68
2022-10-26T00:16:11.115Z,7.67
2022-10-26T00:17:14.894Z,7.65
2022-10-26T00:18:17.571Z,7.64
2022-10-26T00:19:21.325Z,7.62
2022-10-26T00:20:24.168Z,7.62
2022-10-26T00:21:28.010Z,7.61
2022-10-26T00:22:30.753Z,7.57
2022-10-26T00:23:34.562Z,7.57
2022-10-26T00:24:37.251Z,7.55
2022-10-26T00:25:42.435Z,7.54
2022-10-26T00:26:45.205Z,7.53
2022-10-26T00:27:49.188Z,7.52
2022-10-26T00:28:55.042Z,7.51
2022-10-26T00:29:57.716Z,7.51
2022-10-26T00:31:04.823Z,7.50
2022-10-26T00:32:07.534Z,7.50
2022-10-26T00:33:14.543Z,7.51
2022-10-26T00:34:17.231Z,7.50
2022-10-26T00:35:24.005Z,7.49
2022-10-26T00:36:38.453Z,7.46
2022-10-26T00:37:41.304Z,7.46
2022-10-26T00:38:46.256Z,7.44
2022-10-26T00:39:49.231Z,7.41
2022-10-26T00:40:54.537Z,7.36
2022-10-26T00:41:57.285Z,7.34
2022-10-26T00:43:01.753Z,7.30
2022-10-26T00:44:38.564Z,7.27
2022-10-26T00:45:41.280Z,7.21
2022-10-26T00:46:45.124Z,7.17
2022-10-26T00:47:49.937Z,7.14
2022-10-26T00:48:55.933Z,7.11
2022-10-26T00:50:00.685Z,7.07
2022-10-26T00:51:07.734Z,7.01
2022-10-26T00:52:10.351Z,6.92
2022-10-26T00:53:14.101Z,6.85
2022-10-26T00:54:18.714Z,6.78
2022-10-26T00:55:23.590Z,6.74
2022-10-26T00:56:28.115Z,6.69
2022-10-26T00:57:31.882Z,6.66
2022-10-26T00:58:35.381Z,6.62
2022-10-26T00:59:39.129Z,6.57
2022-10-26T01:00:42.484Z,6.52
2022-10-26T01:01:48.162Z,6.46
2022-10-26T01:02:52.395Z,6.42
2022-10-26T01:03:56.290Z,6.37
2022-10-26T01:04:59.043Z,6.33
2022-10-26T01:06:03.741Z,6.29
2022-10-26T01:07:06.834Z,6.23
2022-10-26T01:08:11.135Z,6.21
2022-10-26T01:09:13.973Z,6.19
2022-10-26T01:10:18.979Z,6.18
2022-10-26T01:11:21.751Z,6.15
2022-10-26T01:12:26.976Z,6.12
2022-10-26T01:13:31.452Z,6.09
2022-10-26T01:14:35.694Z,6.08
2022-10-26T01:15:45.470Z,6.05
2022-10-26T01:16:57.847Z,6.02
2022-10-26T01:18:06.601Z,5.98
2022-10-26T01:19:32.323Z,5.97
2022-10-26T01:21:13.611Z,5.94
2022-10-26T01:22:20.733Z,5.91
2022-10-26T01:23:29.696Z,5.89
2022-10-26T01:24:58.492Z,5.88
2022-10-26T01:26:14.834Z,5.86
2022-10-26T01:27:27.444Z,5.86
2022-10-26T01:28:40.373Z,5.83
2022-10-26T01:30:16.774Z,5.79
2022-10-26T01:31:23.615Z,5.75
2022-10-26T01:32:33.426Z,5.75
2022-10-26T01:33:38.975Z,5.77
2022-10-26T01:34:45.776Z,5.79
2022-10-26T01:35:57.031Z,5.82
2022-10-26T01:37:05.908Z,5.84
2022-10-26T01:38:11.797Z,5.86
2022-10-26T01:39:18.105Z,5.88
2022-10-26T01:40:24.253Z,5.90
2022-10-26T01:41:31.215Z,5.91
2022-10-26T01:42:36.186Z,5.94
2022-10-26T01:43:44.233Z,5.96
2022-10-26T01:44:49.074Z,5.96
2022-10-26T01:45:55.854Z,5.98
2022-10-26T01:46:59.680Z,6.03
2022-10-26T01:48:03.946Z,6.06
2022-10-26T01:49:08.736Z,6.10
2022-10-26T01:50:18.642Z,6.13
2022-10-26T01:51:21.916Z,6.15
2022-10-26T01:52:25.905Z,6.18
2022-10-26T01:53:29.125Z,6.20
2022-10-26T01:55:46.024Z,6.24
2022-10-26T01:56:53.613Z,6.26
2022-10-26T01:58:00.132Z,6.31
2022-10-26T01:59:15.667Z,6.36
2022-10-26T02:00:18.443Z,6.41
2022-10-26T02:01:37.159Z,6.49
2022-10-26T02:03:01.645Z,6.56
2022-10-26T02:04:11.302Z,6.61
2022-10-26T02:05:29.591Z,6.66
2022-10-26T02:06:40.113Z,6.72
2022-10-26T02:07:52.486Z,6.74
2022-10-26T02:08:59.161Z,6.77
2022-10-26T02:10:09.372Z,6.81
2022-10-26T02:11:16.604Z,6.85
2022-10-26T02:12:23.636Z,6.88
2022-10-26T02:13:29.758Z,6.92
2022-10-26T02:14:38.844Z,6.95
2022-10-26T02:15:49.133Z,6.98
2022-10-26T02:16:58.706Z,7.01
2022-10-26T02:18:04.877Z,7.04
2022-10-26T02:19:14.614Z,7.07
2022-10-26T02:20:20.493Z,7.09
2022-10-26T02:21:41.112Z,7.12
2022-10-26T02:22:47.193Z,7.13
2022-10-26T02:23:51.035Z,7.14
2022-10-26T02:24:54.632Z,7.15
2022-10-26T02:26:00.566Z,7.16
2022-10-26T02:27:05.648Z,7.16
2022-10-26T02:28:11.622Z,7.15
2022-10-26T02:29:17.015Z,7.15
2022-10-26T02:30:21.306Z,7.14
2022-10-26T02:31:25.400Z,7.13
2022-10-26T02:32:33.546Z,7.11
2022-10-26T02:33:39.677Z,7.10
2022-10-26T02:34:46.117Z,7.07
2022-10-26T02:35:51.421Z,7.02
2022-10-26T02:36:56.636Z,7.00
2022-10-26T02:38:02.013Z,6.99
2022-10-26T02:39:06.820Z,6.98
2022-10-26T02:40:13.120Z,6.98
2022-10-26T02:41:17.474Z,6.99
2022-10-26T02:42:20.495Z,6.99
2022-10-26T02:43:25.270Z,7.00
2022-10-26T02:44:30.197Z,6.99
2022-10-26T02:45:37.482Z,6.99
2022-10-26T02:46:41.685Z,6.97
2022-10-26T02:47:45.960Z,6.93
2022-10-26T02:48:49.873Z,6.89
2022-10-26T02:49:52.960Z,6.86
2022-10-26T02:51:01.644Z,6.84
2022-10-26T02:52:07.994Z,6.82
2022-10-26T02:53:17.964Z,6.80
2022-10-26T02:54:25.944Z,6.76
2022-10-26T02:55:35.831Z,6.71
2022-10-26T02:56:44.536Z,6.67
2022-10-26T02:57:52.251Z,6.62
2022-10-26T02:58:58.116Z,6.59
2022-10-26T03:00:02.325Z,6.55
2022-10-26T03:01:05.379Z,6.50
2022-10-26T03:02:09.376Z,6.45
2022-10-26T03:03:14.175Z,6.42
2022-10-26T03:04:18.002Z,6.38
2022-10-26T03:05:22.400Z,6.37
2022-10-26T03:06:26.695Z,6.33
2022-10-26T03:07:29.457Z,6.29
2022-10-26T03:08:33.254Z,6.27
2022-10-26T03:09:35.985Z,6.23
2022-10-26T03:10:42.814Z,6.18
2022-10-26T03:11:45.523Z,6.13
2022-10-26T03:12:49.658Z,6.08
2022-10-26T03:13:52.712Z,6.05
2022-10-26T03:14:56.515Z,6.02
2022-10-26T03:15:59.205Z,5.99
2022-10-26T03:17:02.914Z,5.97
2022-10-26T03:18:06.163Z,5.96
2022-10-26T03:19:11.402Z,5.96
2022-10-26T03:20:14.120Z,5.97
2022-10-26T03:21:17.830Z,5.97
2022-10-26T03:22:20.562Z,5.95
2022-10-26T03:23:24.358Z,5.92
2022-10-26T03:24:27.242Z,5.91
2022-10-26T03:25:31.035Z,5.91
2022-10-26T03:26:33.773Z,5.90
2022-10-26T03:27:38.136Z,5.91
2022-10-26T03:28:40.852Z,5.89
2022-10-26T03:29:44.611Z,5.89
2022-10-26T03:30:47.280Z,5.89
2022-10-26T03:31:54.423Z,5.91
2022-10-26T03:32:57.266Z,5.92
2022-10-26T03:34:01.160Z,5.93
2022-10-26T03:35:06.006Z,5.95
2022-10-26T03:36:10.853Z,5.97
2022-10-26T03:37:13.623Z,6.00
2022-10-26T03:38:17.447Z,6.00
2022-10-26T03:39:21.233Z,6.00
2022-10-26T03:40:24.077Z,6.00
2022-10-26T03:41:27.964Z,5.98
2022-10-26T03:42:34.312Z,5.98
2022-10-26T03:43:38.137Z,5.99
2022-10-26T03:44:42.241Z,6.00
2022-10-26T03:45:46.257Z,6.00
2022-10-26T03:46:50.060Z,6.00
2022-10-26T03:47:53.359Z,5.99
2022-10-26T03:48:57.415Z,5.97
2022-10-26T03:50:00.926Z,5.95
2022-10-26T03:51:06.336Z,5.94
2022-10-26T03:52:09.117Z,5.91
2022-10-26T03:53:13.049Z,5.89
2022-10-26T03:54:15.790Z,5.90
2022-10-26T03:55:19.620Z,5.89
2022-10-26T03:56:22.455Z,5.89
2022-10-26T03:57:26.354Z,5.88
2022-10-26T03:58:29.085Z,5.88
2022-10-26T03:59:32.843Z,5.89
2022-10-26T04:00:35.565Z,5.88
2022-10-26T04:01:40.371Z,5.89
2022-10-26T04:02:47.259Z,5.88
2022-10-26T04:03:51.182Z,5.89
2022-10-26T04:04:54.001Z,5.87
2022-10-26T04:05:58.296Z,5.87
2022-10-26T04:07:02.432Z,5.87
2022-10-26T04:08:06.806Z,5.89
2022-10-26T04:09:09.673Z,5.89
2022-10-26T04:10:13.632Z,5.88
2022-10-26T04:11:16.396Z,5.89
2022-10-26T04:12:20.276Z,5.89
2022-10-26T04:13:23.081Z,5.89
2022-10-26T04:14:27.098Z,5.89
2022-10-26T04:15:30.315Z,5.88
2022-10-26T04:16:34.240Z,5.86
2022-10-26T04:17:37.283Z,5.85
2022-10-26T04:18:40.971Z,5.82
2022-10-26T04:19:43.722Z,5.81
2022-10-26T04:20:47.512Z,5.81
2022-10-26T04:21:51.844Z,5.81
2022-10-26T04:23:00.870Z,5.79
2022-10-26T04:24:03.843Z,5.78
2022-10-26T04:25:09.016Z,5.79
2022-10-26T04:26:11.683Z,5.80
2022-10-26T04:27:15.485Z,5.83
2022-10-26T04:28:18.133Z,5.85
2022-10-26T04:29:21.853Z,5.85
2022-10-26T04:30:25.430Z,5.83
2022-10-26T04:31:29.368Z,5.78
2022-10-26T04:32:32.243Z,5.75
2022-10-26T04:33:36.308Z,5.74
2022-10-26T04:34:39.045Z,5.73
2022-10-26T04:35:43.563Z,5.72
2022-10-26T04:36:46.250Z,5.70
2022-10-26T04:37:50.034Z,5.68
2022-10-26T04:38:55.553Z,5.65
2022-10-26T04:39:58.479Z,5.63
2022-10-26T04:41:02.263Z,5.61
2022-10-26T04:42:05.136Z,5.60
2022-10-26T04:43:08.972Z,5.59
2022-10-26T04:44:12.001Z,5.59
2022-10-26T04:45:17.613Z,5.60
2022-10-26T04:46:20.389Z,5.60
2022-10-26T04:47:24.257Z,5.62
2022-10-26T04:48:27.137Z,5.65
2022-10-26T04:49:31.149Z,5.65
2022-10-26T04:50:34.291Z,5.68
2022-10-26T04:51:39.994Z,5.69
2022-10-26T04:52:42.671Z,5.70
2022-10-26T04:53:46.463Z,5.71
2022-10-26T04:54:50.564Z,5.73
2022-10-26T04:55:58.201Z,5.74
2022-10-26T04:57:00.883Z,5.73
2022-10-26T04:58:05.262Z,5.75
2022-10-26T04:59:08.062Z,5.75
2022-10-26T05:00:13.115Z,5.77
2022-10-26T05:01:17.878Z,5.78
2022-10-26T05:02:21.490Z,5.79
2022-10-26T05:03:25.515Z,5.78
2022-10-26T05:04:29.372Z,5.77
2022-10-26T05:05:33.562Z,5.76
2022-10-26T05:06:37.252Z,5.75
2022-10-26T05:07:39.994Z,5.77
2022-10-26T05:08:43.773Z,5.79
2022-10-26T05:09:48.008Z,5.81
2022-10-26T05:10:55.074Z,5.81
2022-10-26T05:11:57.925Z,5.82
2022-10-26T05:13:02.375Z,5.83
2022-10-26T05:14:06.261Z,5.82
2022-10-26T05:15:12.186Z,5.82
2022-10-26T05:16:16.291Z,5.80
2022-10-26T05:17:19.018Z,5.78
2022-10-26T05:18:22.753Z,5.76
2022-10-26T05:19:25.549Z,5.73
2022-10-26T05:20:31.341Z,5.71
2022-10-26T05:21:34.247Z,5.69
2022-10-26T05:22:38.067Z,5.67
2022-10-26T05:23:41.854Z,5.66
2022-10-26T05:24:44.603Z,5.62
2022-10-26T05:25:48.601Z,5.61
2022-10-26T05:26:53.761Z,5.57
2022-10-26T05:27:59.072Z,5.53
2022-10-26T05:29:03.019Z,5.51
2022-10-26T05:31:15.313Z,5.47
2022-10-26T05:32:17.982Z,5.45
2022-10-26T05:33:21.737Z,5.43
2022-10-26T05:34:24.477Z,5.41
2022-10-26T05:35:28.642Z,5.38
2022-10-26T05:36:32.341Z,5.35
2022-10-26T05:37:35.033Z,5.33
2022-10-26T05:38:38.782Z,5.30
2022-10-26T05:39:41.578Z,5.27
2022-10-26T05:40:49.371Z,5.25
2022-10-26T05:41:54.588Z,5.22
2022-10-26T05:43:00.434Z,5.21
2022-10-26T05:44:04.161Z,5.18
2022-10-26T05:45:08.092Z,5.19
2022-10-26T05:46:11.831Z,5.18
2022-10-26T05:47:15.552Z,5.17
2022-10-26T05:48:18.445Z,5.15
2022-10-26T05:49:22.244Z,5.15
2022-10-26T05:50:25.046Z,5.13
2022-10-26T05:51:28.873Z,5.14
2022-10-26T05:52:31.651Z,5.14
2022-10-26T05:53:35.465Z,5.15
2022-10-26T05:54:38.195Z,5.14
2022-10-26T05:55:42.815Z,5.14
2022-10-26T05:56:47.165Z,5.13
2022-10-26T05:57:52.297Z,5.13
2022-10-26T05:58:56.882Z,5.13
2022-10-26T06:00:00.297Z,5.17
2022-10-26T06:01:12.904Z,5.23
2022-10-26T06:02:25.147Z,5.27
2022-10-26T06:03:37.635Z,5.30
2022-10-26T06:04:48.182Z,5.32
2022-10-26T06:05:53.670Z,5.32
2022-10-26T06:06:58.411Z,5.35
2022-10-26T06:08:01.714Z,5.40
2022-10-26T06:09:06.131Z,5.46
2022-10-26T06:10:13.488Z,5.55
2022-10-26T06:11:16.915Z,5.62
2022-10-26T06:12:21.305Z,5.70
2022-10-26T06:13:26.221Z,5.79
2022-10-26T06:14:30.594Z,5.87
2022-10-26T06:15:39.623Z,6.02
2022-10-26T06:16:55.444Z,6.17
2022-10-26T06:18:05.787Z,6.31
2022-10-26T06:19:17.807Z,6.45
2022-10-26T06:20:39.230Z,6.60
2022-10-26T06:21:53.433Z,6.72
2022-10-26T06:23:05.741Z,6.87
2022-10-26T06:24:13.263Z,7.00
2022-10-26T06:25:27.332Z,7.13
2022-10-26T06:26:38.362Z,7.24
2022-10-26T06:27:46.671Z,7.31
2022-10-26T06:28:57.274Z,7.36
2022-10-26T06:30:02.803Z,7.38
2022-10-26T06:31:05.654Z,7.43
2022-10-26T06:32:10.000Z,7.48
2022-10-26T06:33:24.761Z,7.55
2022-10-26T06:34:35.874Z,7.65
2022-10-26T06:35:45.522Z,7.75
2022-10-26T06:36:49.758Z,7.82
2022-10-26T06:37:54.524Z,7.90
2022-10-26T06:39:01.134Z,7.99
2022-10-26T06:40:07.051Z,8.06
2022-10-26T06:41:11.434Z,8.15
2022-10-26T06:42:15.884Z,8.25
2022-10-26T06:43:24.964Z,8.38
2022-10-26T06:44:30.953Z,8.48
2022-10-26T06:45:34.415Z,8.61
2022-10-26T06:46:41.114Z,8.76
2022-10-26T06:47:50.144Z,8.90
2022-10-26T06:48:59.942Z,9.00
2022-10-26T06:50:06.874Z,9.11
2022-10-26T06:51:12.672Z,9.23
2022-10-26T06:52:19.439Z,9.35
2022-10-26T06:53:28.378Z,9.48
2022-10-26T06:54:47.122Z,9.64
2022-10-26T06:55:51.263Z,9.77
2022-10-26T06:56:55.556Z,9.85
2022-10-26T06:57:59.551Z,9.97
2022-10-26T06:59:09.932Z,10.07
2022-10-26T07:00:21.193Z,10.15
2022-10-26T07:01:25.254Z,10.25
2022-10-26T07:02:29.370Z,10.32
2022-10-26T07:03:32.164Z,10.36
2022-10-26T07:04:35.894Z,10.46
2022-10-26T07:05:39.901Z,10.55
2022-10-26T07:06:43.834Z,10.64
2022-10-26T07:07:49.131Z,10.73
2022-10-26T07:08:51.991Z,10.82
2022-10-26T07:09:55.722Z,10.93
2022-10-26T07:10:58.352Z,11.04
2022-10-26T07:12:02.223Z,11.12
2022-10-26T07:13:05.055Z,11.20
2022-10-26T07:14:08.780Z,11.29
2022-10-26T07:15:12.828Z,11.36
2022-10-26T07:16:18.035Z,11.42
2022-10-26T07:17:20.793Z,11.44
2022-10-26T07:18:24.597Z,11.48
2022-10-26T07:19:27.431Z,11.50
2022-10-26T07:20:31.280Z,11.51
2022-10-26T07:21:34.090Z,11.52
2022-10-26T07:22:38.253Z,11.52
2022-10-26T07:23:40.980Z,11.53
2022-10-26T07:24:44.712Z,11.52
2022-10-26T07:25:47.516Z,11.50
2022-10-26T07:26:51.372Z,11.48
2022-10-26T07:27:58.875Z,11.47
2022-10-26T07:29:01.760Z,11.44
2022-10-26T07:30:06.554Z,11.44
2022-10-26T07:31:10.440Z,11.43
2022-10-26T07:32:15.558Z,11.44
2022-10-26T07:33:18.393Z,11.44
2022-10-26T07:34:22.243Z,11.45
2022-10-26T07:35:25.011Z,11.45
2022-10-26T07:36:30.610Z,11.46
2022-10-26T07:37:33.473Z,11.48
2022-10-26T07:38:37.306Z,11.50
2022-10-26T07:39:40.095Z,11.53
2022-10-26T07:40:43.870Z,11.56
2022-10-26T07:41:47.115Z,11.60
2022-10-26T07:42:50.974Z,11.62
2022-10-26T07:43:55.046Z,11.65
2022-10-26T07:44:57.888Z,11.68
2022-10-26T07:46:01.667Z,11.70
2022-10-26T07:47:05.382Z,11.71
2022-10-26T07:48:10.566Z,11.74
2022-10-26T07:49:16.283Z,11.78
2022-10-26T07:50:23.459Z,11.83
2022-10-26T07:51:27.252Z,11.88
2022-10-26T07:52:29.934Z,11.92
2022-10-26T07:53:33.711Z,11.96
2022-10-26T07:54:36.402Z,12.00
2022-10-26T07:55:40.243Z,12.05
2022-10-26T07:56:43.041Z,12.09
2022-10-26T07:57:49.706Z,12.12
2022-10-26T07:58:58.332Z,12.15
2022-10-26T08:00:01.301Z,12.18
2022-10-26T08:01:08.929Z,12.22
2022-10-26T08:02:12.836Z,12.27
2022-10-26T08:03:17.358Z,12.31
2022-10-26T08:04:21.368Z,12.34
2022-10-26T08:05:24.321Z,12.37
2022-10-26T08:06:28.253Z,12.41
2022-10-26T08:07:31.120Z,12.44
2022-10-26T08:08:35.364Z,12.49
2022-10-26T08:09:38.032Z,12.52
2022-10-26T08:10:44.262Z,12.56
2022-10-26T08:11:48.293Z,12.59
2022-10-26T08:12:54.244Z,12.62
2022-10-26T08:13:58.109Z,12.65
2022-10-26T08:15:00.781Z,12.67
2022-10-26T08:16:07.201Z,12.71
2022-10-26T08:17:10.297Z,12.74
2022-10-26T08:18:14.112Z,12.78
2022-10-26T08:19:18.449Z,12.81
2022-10-26T08:20:22.375Z,12.86
2022-10-26T08:21:36.139Z,12.91
2022-10-26T08:22:43.193Z,12.95
2022-10-26T08:23:46.083Z,12.99
2022-10-26T08:24:49.812Z,13.05
2022-10-26T08:25:52.472Z,13.11
2022-10-26T08:26:56.413Z,13.14
2022-10-26T08:28:03.662Z,13.19
2022-10-26T08:29:06.303Z,13.23
2022-10-26T08:30:10.656Z,13.27
2022-10-26T08:31:14.505Z,13.32
2022-10-26T08:32:18.326Z,13.35
2022-10-26T08:33:21.321Z,13.39
2022-10-26T08:34:26.632Z,13.43
2022-10-26T08:35:29.753Z,13.46
2022-10-26T08:36:33.523Z,13.48
2022-10-26T08:37:36.221Z,13.53
2022-10-26T08:38:39.911Z,13.55
2022-10-26T08:39:43.675Z,13.61
2022-10-26T08:40:46.653Z,13.65
2022-10-26T08:41:53.671Z,13.70
2022-10-26T08:42:59.711Z,13.74
2022-10-26T08:44:12.952Z,13.78
2022-10-26T08:45:30.550Z,13.81
2022-10-26T08:46:39.652Z,13.84
2022-10-26T08:47:46.678Z,13.86
2022-10-26T08:48:54.093Z,13.89
2022-10-26T08:50:00.435Z,13.91
2022-10-26T08:51:07.889Z,13.96
2022-10-26T08:52:14.425Z,14.00
2022-10-26T08:53:22.911Z,14.03
2022-10-26T08:54:34.343Z,14.08
2022-10-26T08:56:54.535Z,14.19
2022-10-26T08:57:57.465Z,14.23
2022-10-26T08:59:04.830Z,14.28
2022-10-26T09:00:12.613Z,14.30
2022-10-26T09:01:15.484Z,14.34
2022-10-26T09:02:19.715Z,14.38
2022-10-26T09:03:24.193Z,14.41
2022-10-26T09:04:29.549Z,14.44
2022-10-26T09:05:48.211Z,14.48
2022-10-26T09:06:57.680Z,14.49
2022-10-26T09:08:04.414Z,14.54
2022-10-26T09:09:10.312Z,14.56
2022-10-26T09:11:49.352Z,14.64
2022-10-26T09:12:56.233Z,14.67
2022-10-26T09:14:06.751Z,14.70
2022-10-26T09:15:14.885Z,14.72
2022-10-26T09:16:26.434Z,14.76
2022-10-26T09:17:39.209Z,14.80
2022-10-26T09:20:07.451Z,14.87
2022-10-26T09:21:21.794Z,14.90
2022-10-26T09:22:27.937Z,14.95
2022-10-26T09:24:01.081Z,14.98
2022-10-26T09:25:14.780Z,14.98
2022-10-26T09:26:28.241Z,15.00
2022-10-26T09:27:36.303Z,15.04
2022-10-26T09:28:39.676Z,15.05
2022-10-26T09:29:44.503Z,15.06
2022-10-26T09:30:48.425Z,15.07
2022-10-26T09:31:52.283Z,15.09
2022-10-26T09:32:59.053Z,15.10
2022-10-26T09:34:03.070Z,15.12
2022-10-26T09:35:14.432Z,15.18
2022-10-26T09:36:22.692Z,15.22
2022-10-26T09:37:28.059Z,15.24
2022-10-26T09:38:32.973Z,15.28
2022-10-26T09:39:40.519Z,15.33
2022-10-26T09:40:49.764Z,15.35
2022-10-26T09:41:58.632Z,15.40
2022-10-26T09:43:06.318Z,15.41
2022-10-26T09:44:14.535Z,15.45
2022-10-26T09:45:19.844Z,15.46
2022-10-26T09:46:28.172Z,15.49
2022-10-26T09:47:34.860Z,15.51
2022-10-26T09:48:42.702Z,15.53
2022-10-26T09:49:49.237Z,15.56
2022-10-26T09:50:53.204Z,15.59
2022-10-26T09:51:57.534Z,15.61
2022-10-26T09:53:01.378Z,15.63
2022-10-26T09:54:08.630Z,15.66
2022-10-26T09:55:13.563Z,15.67
2022-10-26T09:56:16.971Z,15.68
2022-10-26T09:57:21.791Z,15.69
2022-10-26T09:58:27.044Z,15.70
2022-10-26T09:59:33.743Z,15.71
2022-10-26T10:00:39.029Z,15.75
2022-10-26T10:01:42.675Z,15.76
2022-10-26T10:02:49.131Z,15.81
2022-10-26T10:04:11.093Z,15.86
2022-10-26T10:05:49.746Z,15.91
2022-10-26T10:06:51.959Z,15.94
2022-10-26T10:08:11.804Z,15.97
2022-10-26T10:09:15.953Z,15.99
2022-10-26T10:10:21.753Z,16.02
2022-10-26T10:11:38.084Z,16.07
2022-10-26T10:12:42.180Z,16.10
2022-10-26T10:13:47.192Z,16.13
2022-10-26T10:14:57.521Z,16.18
2022-10-26T10:16:06.996Z,16.22
2022-10-26T10:17:20.236Z,16.27
2022-10-26T10:18:23.973Z,16.31
2022-10-26T10:19:29.345Z,16.36
2022-10-26T10:20:33.275Z,16.40
2022-10-26T10:21:39.049Z,16.46
2022-10-26T10:22:54.999Z,16.50
2022-10-26T10:24:00.465Z,16.53
2022-10-26T10:25:07.072Z,16.55
2022-10-26T10:26:11.459Z,16.58
2022-10-26T10:27:19.090Z,16.61
2022-10-26T10:28:23.258Z,16.63
2022-10-26T10:29:27.803Z,16.66
2022-10-26T10:30:32.252Z,16.68
2022-10-26T10:31:36.193Z,16.70
2022-10-26T10:32:40.606Z,16.73
2022-10-26T10:33:45.924Z,16.74
2022-10-26T10:34:51.402Z,16.75
2022-10-26T10:35:54.163Z,16.79
2022-10-26T10:36:59.480Z,16.83
2022-10-26T10:38:02.297Z,16.88
2022-10-26T10:39:43.859Z,16.91
2022-10-26T10:40:50.943Z,16.91
2022-10-26T10:41:54.759Z,16.90
2022-10-26T10:43:06.911Z,16.92
2022-10-26T10:44:26.063Z,16.95
2022-10-26T10:45:30.454Z,16.98
2022-10-26T10:46:34.697Z,17.02
2022-10-26T10:47:38.068Z,17.06
2022-10-26T10:48:48.532Z,17.12
2022-10-26T10:49:54.122Z,17.15
2022-10-26T10:51:00.224Z,17.15
2022-10-26T10:52:02.986Z,17.15
2022-10-26T10:53:19.497Z,17.15
2022-10-26T10:54:27.048Z,17.14
2022-10-26T10:55:30.802Z,17.18
2022-10-26T10:56:42.334Z,17.20
2022-10-26T10:57:54.881Z,17.22
2022-10-26T10:59:07.555Z,17.26
2022-10-26T11:00:12.411Z,17.29
2022-10-26T11:01:18.104Z,17.31
2022-10-26T11:02:36.275Z,17.36
2022-10-26T11:03:46.929Z,17.36
2022-10-26T11:05:01.725Z,17.34
2022-10-26T11:06:09.672Z,17.36
2022-10-26T11:07:12.872Z,17.42
2022-10-26T11:08:21.302Z,17.51
2022-10-26T11:09:29.413Z,17.62
2022-10-26T11:10:37.275Z,17.70
2022-10-26T11:11:44.734Z,17.75
2022-10-26T11:12:53.391Z,17.80
2022-10-26T11:13:59.708Z,17.82
2022-10-26T11:15:06.444Z,17.87
2022-10-26T11:16:15.226Z,17.92
2022-10-26T11:17:21.939Z,17.98
2022-10-26T11:18:27.891Z,18.03
2022-10-26T11:19:36.633Z,18.10
2022-10-26T11:20:42.840Z,18.17
2022-10-26T11:21:48.294Z,18.24
2022-10-26T11:23:02.538Z,18.35
2022-10-26T11:24:14.145Z,18.40
2022-10-26T11:25:20.322Z,18.49
2022-10-26T11:26:27.511Z,18.59
2022-10-26T11:27:35.378Z,18.70
2022-10-26T11:28:45.353Z,18.83
2022-10-26T11:29:53.452Z,18.96
2022-10-26T11:31:00.753Z,19.06
2022-10-26T11:32:10.211Z,19.14
2022-10-26T11:33:17.672Z,19.27
2022-10-26T11:34:25.868Z,19.38
2022-10-26T11:35:32.639Z,19.48
2022-10-26T11:36:36.910Z,19.51
2022-10-26T11:37:45.785Z,19.52
2022-10-26T11:38:57.197Z,19.52
2022-10-26T11:40:10.772Z,19.52
2022-10-26T11:41:20.689Z,19.51
2022-10-26T11:42:28.051Z,19.49
2022-10-26T11:43:36.611Z,19.47
2022-10-26T11:44:41.393Z,19.48
2022-10-26T11:45:47.030Z,19.49
2022-10-26T11:46:53.436Z,19.47
2022-10-26T11:48:03.101Z,19.46
2022-10-26T11:49:11.921Z,19.45
2022-10-26T11:50:19.512Z,19.44
2022-10-26T11:51:36.621Z,19.36
2022-10-26T11:52:44.619Z,19.25
2022-10-26T11:53:48.481Z,19.13
2022-10-26T11:54:55.434Z,18.99
2022-10-26T11:55:58.941Z,18.84
2022-10-26T11:57:05.580Z,18.69
2022-10-26T11:58:10.651Z,18.56
2022-10-26T11:59:17.582Z,18.41
2022-10-26T12:00:22.869Z,18.27
2022-10-26T12:01:26.717Z,18.15
2022-10-26T12:02:30.603Z,18.03
2022-10-26T12:03:36.613Z,17.99
2022-10-26T12:04:40.841Z,18.02
2022-10-26T12:05:47.881Z,18.10
2022-10-26T12:06:51.810Z,18.16
2022-10-26T12:07:57.850Z,18.18
2022-10-26T12:09:05.560Z,18.12
2022-10-26T12:10:23.712Z,18.05
2022-10-26T12:11:37.022Z,17.96
2022-10-26T12:12:45.451Z,17.93
2022-10-26T12:13:51.240Z,17.91
2022-10-26T12:14:59.838Z,17.99
2022-10-26T12:16:08.432Z,18.09
2022-10-26T12:17:16.638Z,18.21
2022-10-26T12:18:43.110Z,18.33
2022-10-26T12:19:52.373Z,18.45
2022-10-26T12:21:02.776Z,18.56
2022-10-26T12:22:06.903Z,18.66
2022-10-26T12:23:12.164Z,18.77
2022-10-26T12:24:27.764Z,18.91
2022-10-26T12:25:30.397Z,19.07
2022-10-26T12:26:49.429Z,19.20
2022-10-26T12:27:58.541Z,19.37
2022-10-26T12:29:27.863Z,19.56
2022-10-26T12:30:32.696Z,19.74
2022-10-26T12:31:43.441Z,19.94
2022-10-26T12:32:55.863Z,20.19
2022-10-26T12:33:59.233Z,20.46
2022-10-26T12:35:04.962Z,20.71
2022-10-26T12:36:44.182Z,20.93
2022-10-26T12:37:46.862Z,21.12
2022-10-26T12:38:57.674Z,21.30
2022-10-26T12:40:34.551Z,21.55
2022-10-26T12:41:40.225Z,21.75
2022-10-26T12:42:42.919Z,21.92
2022-10-26T12:43:48.373Z,22.14
2022-10-26T12:45:15.643Z,22.43
2022-10-26T12:46:43.592Z,22.66
2022-10-26T12:48:10.832Z,22.69
2022-10-26T12:49:54.830Z,22.74
2022-10-26T12:51:39.627Z,22.84
2022-10-26T12:52:50.351Z,22.98
2022-10-26T12:53:58.793Z,23.09
2022-10-26T12:55:32.209Z,23.33
2022-10-26T12:56:40.341Z,23.53
2022-10-26T12:57:49.303Z,23.61
2022-10-26T12:59:20.100Z,23.65
2022-10-26T13:00:23.990Z,23.70
2022-10-26T13:03:04.504Z,23.85
2022-10-26T13:04:50.020Z,23.91
2022-10-26T13:06:15.511Z,23.80
2022-10-26T13:07:24.479Z,23.76
2022-10-26T13:08:28.293Z,23.71
2022-10-26T13:09:34.411Z,23.79
2022-10-26T13:10:39.580Z,23.85
2022-10-26T13:11:46.612Z,23.90
2022-10-26T13:12:53.430Z,23.91
2022-10-26T13:13:59.085Z,23.88
2022-10-26T13:15:07.701Z,23.92
2022-10-26T13:16:12.589Z,23.96
2022-10-26T13:17:29.020Z,24.03
2022-10-26T13:18:32.793Z,24.09
2022-10-26T13:19:47.022Z,24.20
2022-10-26T13:20:55.525Z,24.22
2022-10-26T13:22:00.249Z,24.20
2022-10-26T13:23:04.502Z,24.18
2022-10-26T13:24:15.460Z,24.12
2022-10-26T13:25:24.361Z,23.95
2022-10-26T13:26:28.165Z,23.61
2022-10-26T13:27:43.430Z,23.23
2022-10-26T13:28:52.102Z,22.95
2022-10-26T13:30:21.620Z,22.72
2022-10-26T13:32:01.461Z,22.26
2022-10-26T13:33:04.425Z,21.81
2022-10-26T13:35:22.579Z,21.12
2022-10-26T13:36:31.059Z,20.78
2022-10-26T13:37:35.432Z,20.47
2022-10-26T13:38:39.324Z,20.23
2022-10-26T13:39:43.770Z,20.01
2022-10-26T13:40:47.818Z,19.81
2022-10-26T13:41:52.812Z,19.55
2022-10-26T13:42:58.201Z,19.36
2022-10-26T13:44:06.619Z,19.21
2022-10-26T13:45:13.060Z,19.04
2022-10-26T13:46:28.209Z,18.86
2022-10-26T13:47:36.525Z,18.69
2022-10-26T13:48:42.340Z,18.54
2022-10-26T13:49:47.766Z,18.35
2022-10-26T13:50:54.400Z,18.20
2022-10-26T13:52:02.987Z,18.06
2022-10-26T13:53:08.844Z,18.02
2022-10-26T13:54:21.961Z,18.09
2022-10-26T13:55:27.313Z,18.22
2022-10-26T13:56:33.992Z,18.34
2022-10-26T13:57:39.775Z,18.47
2022-10-26T13:58:43.818Z,18.55
2022-10-26T13:59:47.834Z,18.56
2022-10-26T14:01:15.465Z,18.53
2022-10-26T14:02:25.036Z,18.51
2022-10-26T14:03:27.874Z,18.45
2022-10-26T14:04:31.659Z,18.44
2022-10-26T14:05:34.463Z,18.40
2022-10-26T14:06:39.579Z,18.29
2022-10-26T14:07:45.493Z,18.18
2022-10-26T14:08:50.273Z,18.13
2022-10-26T14:09:55.648Z,18.07
2022-10-26T14:10:59.422Z,18.03
2022-10-26T14:12:03.591Z,18.00
2022-10-26T14:13:08.546Z,17.99
2022-10-26T14:14:15.254Z,17.99
2022-10-26T14:15:19.872Z,17.99
2022-10-26T14:16:28.971Z,17.98
2022-10-26T14:17:33.244Z,17.92
2022-10-26T14:18:37.982Z,17.90
2022-10-26T14:19:41.587Z,17.86
2022-10-26T14:20:49.989Z,17.88
2022-10-26T14:21:54.241Z,17.95
2022-10-26T14:22:57.178Z,18.05
2022-10-26T14:24:07.815Z,18.10
2022-10-26T14:25:26.637Z,18.19
2022-10-26T14:26:41.683Z,18.25
2022-10-26T14:27:44.483Z,18.29
2022-10-26T14:28:52.917Z,18.28
2022-10-26T14:30:21.089Z,18.18
2022-10-26T14:31:24.677Z,18.03
2022-10-26T14:32:29.099Z,17.93
2022-10-26T14:33:34.744Z,17.87
2022-10-26T14:34:38.564Z,17.77
2022-10-26T14:35:42.321Z,17.69
2022-10-26T14:36:49.366Z,17.63
2022-10-26T14:37:54.243Z,17.69
2022-10-26T14:39:01.528Z,17.87
2022-10-26T14:40:08.102Z,18.11
2022-10-26T14:41:12.483Z,18.30
2022-10-26T14:42:23.711Z,18.44
2022-10-26T14:43:27.077Z,18.60
2022-10-26T14:44:31.652Z,18.76